Terminal Aerodrome Forecast
Issued by NWS

Home | Current Version | Previous Version | Text Only | Print | Product List | Glossary On
Versions: 1 2 3 4 5 6 7 8 9 10 11 12 13 14 15 16 17 18 19 20 21 22 23 24 25 26 27 28
000
FTUS41 KBUF 070300 AAA
TAFIAG
TAF AMD
KIAG 070332Z 0704/0724 21015KT P6SM BKN250
     FM070900 23017KT P6SM OVC200
     FM071200 24014KT P6SM OVC035
     FM071400 23014G21KT P6SM -SN OVC035
     FM071800 23014KT 3SM -SN OVC020
     FM071900 23013G24KT 2SM -SHSN OVC020=

USA.gov is the U.S. government's official web portal to all federal, state and local government web resources and services.